createdAt,value
2018-08-31T00:00:13.304Z,27.47
2018-08-31T00:02:59.545Z,26.40
2018-08-31T00:05:40.813Z,27.00
2018-08-31T00:09:19.735Z,29.20
2018-08-31T00:12:57.424Z,30.47
2018-08-31T00:15:26.369Z,29.20
2018-08-31T00:17:55.206Z,27.80
2018-08-31T00:20:24.105Z,34.07
2018-08-31T00:22:52.844Z,31.80
2018-08-31T00:26:01.137Z,34.00
2018-08-31T00:28:40.941Z,31.60
2018-08-31T00:31:20.640Z,33.57
2018-08-31T00:35:00.444Z,32.77
2018-08-31T00:37:39.816Z,33.13
2018-08-31T00:42:35.444Z,32.77
2018-08-31T00:45:15.524Z,34.20
2018-08-31T00:47:44.400Z,35.43
2018-08-31T00:50:13.183Z,34.83
2018-08-31T00:52:42.232Z,31.93
2018-08-31T00:55:10.966Z,36.57
2018-08-31T00:57:39.726Z,34.57
2018-08-31T01:00:08.644Z,42.27
2018-08-31T01:02:37.455Z,41.43
2018-08-31T01:05:06.292Z,41.40
2018-08-31T01:07:35.389Z,35.83
2018-08-31T01:10:04.292Z,38.13
2018-08-31T01:12:33.117Z,41.00
2018-08-31T01:15:02.469Z,40.67
2018-08-31T01:17:31.342Z,41.07
2018-08-31T01:20:00.180Z,45.93
2018-08-31T01:22:29.117Z,46.20
2018-08-31T01:24:57.879Z,42.97
2018-08-31T01:27:26.611Z,40.80
2018-08-31T01:29:55.508Z,56.23
2018-08-31T01:32:24.381Z,53.57
2018-08-31T01:34:53.254Z,59.03
2018-08-31T01:37:22.171Z,52.77
2018-08-31T01:39:51.033Z,49.73
2018-08-31T01:42:19.800Z,48.17
2018-08-31T01:44:48.876Z,43.40
2018-08-31T01:47:17.891Z,47.23
2018-08-31T01:49:46.764Z,48.80
2018-08-31T01:52:15.607Z,42.37
2018-08-31T01:54:44.440Z,46.83
2018-08-31T01:57:13.499Z,42.43
2018-08-31T01:59:42.382Z,39.00
2018-08-31T02:02:11.227Z,46.80
2018-08-31T02:04:40.000Z,48.77
2018-08-31T02:07:09.356Z,47.37
2018-08-31T02:09:38.209Z,41.17
2018-08-31T02:12:06.968Z,44.03
2018-08-31T02:14:36.049Z,42.63
2018-08-31T02:17:04.817Z,41.40
2018-08-31T02:19:33.557Z,47.03
2018-08-31T02:22:02.392Z,50.80
2018-08-31T02:24:31.350Z,48.30
2018-08-31T02:27:00.072Z,51.03
2018-08-31T02:29:29.042Z,49.07
2018-08-31T02:31:57.784Z,44.47
2018-08-31T02:34:26.924Z,45.20
2018-08-31T02:36:56.141Z,47.43
2018-08-31T02:39:25.071Z,52.60
2018-08-31T02:41:53.844Z,46.77
2018-08-31T02:44:22.683Z,50.33
2018-08-31T02:46:51.549Z,49.73
2018-08-31T02:49:20.413Z,46.93
2018-08-31T02:51:49.221Z,47.53
2018-08-31T02:54:17.978Z,51.03
2018-08-31T02:56:46.827Z,51.80
2018-08-31T02:59:15.551Z,51.03
2018-08-31T03:01:44.657Z,52.27
2018-08-31T03:04:14.512Z,50.30
2018-08-31T03:06:43.318Z,45.43
2018-08-31T03:09:12.352Z,43.03
2018-08-31T03:11:41.234Z,41.67
2018-08-31T03:14:10.156Z,45.23
2018-08-31T03:16:40.917Z,41.93
2018-08-31T03:19:09.864Z,38.43
2018-08-31T03:21:38.617Z,44.13
2018-08-31T03:24:07.416Z,41.63
2018-08-31T03:26:36.289Z,40.10
2018-08-31T03:29:05.390Z,40.50
2018-08-31T03:31:34.104Z,37.80
2018-08-31T03:34:02.901Z,43.87
2018-08-31T03:36:31.759Z,42.40
2018-08-31T03:39:00.497Z,38.80
2018-08-31T03:41:29.589Z,50.53
2018-08-31T03:43:58.376Z,39.63
2018-08-31T03:46:27.170Z,37.40
2018-08-31T03:48:56.065Z,42.57
2018-08-31T03:51:24.950Z,42.63
2018-08-31T03:53:53.903Z,38.93
2018-08-31T03:56:22.834Z,38.00
2018-08-31T03:58:51.758Z,40.57
2018-08-31T04:01:20.634Z,42.30
2018-08-31T04:03:49.410Z,43.83
2018-08-31T04:06:18.213Z,41.20
2018-08-31T04:08:47.142Z,40.50
2018-08-31T04:11:16.425Z,38.00
2018-08-31T04:13:45.412Z,37.70
2018-08-31T04:16:14.481Z,40.60
2018-08-31T04:18:43.379Z,36.83
2018-08-31T04:21:12.188Z,39.40
2018-08-31T04:23:41.061Z,38.83
2018-08-31T04:26:09.872Z,40.00
2018-08-31T04:28:38.616Z,40.97
2018-08-31T04:31:07.572Z,35.43
2018-08-31T04:33:36.880Z,38.97
2018-08-31T04:36:05.772Z,37.83
2018-08-31T04:38:34.580Z,33.03
2018-08-31T04:41:03.524Z,40.03
2018-08-31T04:43:32.288Z,39.63
2018-08-31T04:46:01.212Z,38.37
2018-08-31T04:48:30.307Z,44.20
2018-08-31T04:50:59.117Z,37.50
2018-08-31T04:53:27.932Z,40.93
2018-08-31T04:55:56.763Z,40.50
2018-08-31T04:58:25.533Z,39.63
2018-08-31T05:00:54.340Z,45.20
2018-08-31T05:03:23.236Z,37.57
2018-08-31T05:05:52.015Z,41.00
2018-08-31T05:08:20.925Z,41.83
2018-08-31T05:10:49.860Z,43.13
2018-08-31T05:13:18.801Z,41.43
2018-08-31T05:15:48.650Z,42.07
2018-08-31T05:18:17.603Z,38.93
2018-08-31T05:20:46.480Z,42.47
2018-08-31T05:23:15.567Z,46.63
2018-08-31T05:25:44.441Z,42.47
2018-08-31T05:28:13.225Z,43.97
2018-08-31T05:30:42.127Z,43.67
2018-08-31T05:33:11.246Z,49.70
2018-08-31T05:35:40.126Z,42.97
2018-08-31T05:38:09.200Z,47.20
2018-08-31T05:40:37.980Z,51.43
2018-08-31T05:43:06.951Z,47.83
2018-08-31T05:45:35.910Z,43.60
2018-08-31T05:48:04.760Z,46.50
2018-08-31T05:50:33.613Z,44.87
2018-08-31T05:53:03.618Z,50.53
2018-08-31T05:55:32.533Z,49.83
2018-08-31T05:58:01.519Z,50.57
2018-08-31T06:00:30.453Z,53.43
2018-08-31T06:02:59.229Z,49.70
2018-08-31T06:05:28.057Z,48.40
2018-08-31T06:07:56.888Z,55.93
2018-08-31T06:10:25.877Z,53.00
2018-08-31T06:12:54.675Z,50.73
2018-08-31T06:15:23.471Z,53.27
2018-08-31T06:17:52.555Z,43.80
2018-08-31T06:20:21.337Z,52.50
2018-08-31T06:22:50.235Z,49.87
2018-08-31T06:25:19.400Z,61.10
2018-08-31T06:27:48.349Z,53.33
2018-08-31T06:30:17.154Z,56.30
2018-08-31T06:32:46.082Z,53.30
2018-08-31T06:35:14.822Z,49.80
2018-08-31T06:37:43.627Z,53.30
2018-08-31T06:40:12.476Z,52.03
2018-08-31T06:42:41.322Z,55.67
2018-08-31T06:45:10.174Z,57.60
2018-08-31T06:47:38.987Z,56.20
2018-08-31T06:50:08.024Z,60.90
2018-08-31T06:52:36.813Z,51.60
2018-08-31T06:55:06.132Z,54.43
2018-08-31T06:57:34.927Z,60.70
2018-08-31T07:00:03.850Z,50.47
2018-08-31T07:02:33.016Z,53.40
2018-08-31T07:05:01.797Z,54.70
2018-08-31T07:07:30.618Z,51.47
2018-08-31T07:09:59.464Z,52.40
2018-08-31T07:12:28.302Z,50.17
2018-08-31T07:14:57.378Z,50.37
2018-08-31T07:17:26.171Z,56.83
2018-08-31T07:19:55.118Z,48.67
2018-08-31T07:22:23.798Z,48.33
2018-08-31T07:24:52.692Z,58.47
2018-08-31T07:27:21.537Z,54.23
2018-08-31T07:29:50.436Z,53.50
2018-08-31T07:32:19.420Z,54.20
2018-08-31T07:34:48.317Z,55.60
2018-08-31T07:37:17.176Z,53.80
2018-08-31T07:39:45.956Z,56.50
2018-08-31T07:42:14.725Z,49.60
2018-08-31T07:44:43.522Z,55.53
2018-08-31T07:47:12.367Z,51.70
2018-08-31T07:49:41.329Z,56.67
2018-08-31T07:52:10.093Z,59.07
2018-08-31T07:54:39.016Z,47.13
2018-08-31T07:57:07.949Z,55.93
2018-08-31T07:59:37.060Z,56.37
2018-08-31T08:02:06.902Z,56.33
2018-08-31T08:04:35.872Z,57.60
2018-08-31T08:07:04.699Z,53.57
2018-08-31T08:09:33.456Z,57.60
2018-08-31T08:12:02.335Z,55.30
2018-08-31T08:14:31.168Z,52.93
2018-08-31T08:17:01.307Z,60.23
2018-08-31T08:19:30.487Z,53.40
2018-08-31T08:21:59.412Z,63.07
2018-08-31T08:24:28.294Z,50.63
2018-08-31T08:27:01.561Z,53.20
2018-08-31T08:29:30.409Z,53.03
2018-08-31T08:31:59.187Z,43.37
2018-08-31T08:34:28.284Z,50.60
2018-08-31T08:36:57.191Z,63.83
2018-08-31T08:39:26.259Z,58.03
2018-08-31T08:41:55.197Z,48.27
2018-08-31T08:44:24.008Z,64.47
2018-08-31T08:46:53.840Z,70.13
2018-08-31T08:49:22.692Z,59.03
2018-08-31T08:51:51.444Z,60.50
2018-08-31T08:54:21.332Z,67.10
2018-08-31T08:56:50.171Z,69.43
2018-08-31T08:59:18.900Z,63.43
2018-08-31T09:01:47.676Z,69.70
2018-08-31T09:04:16.586Z,69.33
2018-08-31T09:06:47.379Z,70.83
2018-08-31T09:09:16.270Z,79.90
2018-08-31T09:11:45.122Z,74.73
2018-08-31T09:14:13.898Z,68.30
2018-08-31T09:16:42.738Z,76.90
2018-08-31T09:19:11.519Z,65.47
2018-08-31T09:21:40.392Z,63.87
2018-08-31T09:24:09.196Z,68.30
2018-08-31T09:26:38.249Z,74.50
2018-08-31T09:29:07.031Z,76.17
2018-08-31T09:31:35.962Z,71.07
2018-08-31T09:34:04.849Z,78.87
2018-08-31T09:36:33.745Z,74.03
2018-08-31T09:39:02.621Z,88.87
2018-08-31T09:41:31.474Z,70.50
2018-08-31T09:44:01.298Z,69.80
2018-08-31T09:46:30.124Z,71.37
2018-08-31T09:48:59.020Z,72.17
2018-08-31T09:51:27.827Z,70.37
2018-08-31T09:53:56.561Z,78.87
2018-08-31T09:56:26.392Z,77.53
2018-08-31T09:58:55.203Z,71.00
2018-08-31T10:01:33.250Z,65.63
2018-08-31T10:04:03.190Z,71.60
2018-08-31T10:06:33.019Z,69.63
2018-08-31T10:09:01.829Z,63.37
2018-08-31T10:11:30.636Z,66.33
2018-08-31T10:13:59.496Z,77.90
2018-08-31T10:16:28.407Z,69.97
2018-08-31T10:18:57.225Z,58.97
2018-08-31T10:21:26.113Z,55.87
2018-08-31T10:23:54.937Z,64.77
2018-08-31T10:26:23.773Z,67.60
2018-08-31T10:28:52.831Z,64.60
2018-08-31T10:31:21.601Z,66.23
2018-08-31T10:33:50.423Z,62.43
2018-08-31T10:36:19.164Z,66.13
2018-08-31T10:38:49.154Z,60.50
2018-08-31T10:41:18.069Z,65.73
2018-08-31T10:43:46.929Z,63.53
2018-08-31T10:46:15.752Z,70.63
2018-08-31T10:48:44.628Z,65.30
2018-08-31T10:51:13.433Z,73.27
2018-08-31T10:53:42.294Z,67.20
2018-08-31T10:56:11.004Z,68.47
2018-08-31T10:58:39.806Z,66.70
2018-08-31T11:01:08.606Z,64.47
2018-08-31T11:03:37.421Z,73.73
2018-08-31T11:06:06.336Z,69.10
2018-08-31T11:08:35.052Z,58.80
2018-08-31T11:11:03.872Z,54.80
2018-08-31T11:13:32.697Z,65.73
2018-08-31T11:16:01.523Z,58.27
2018-08-31T11:18:30.357Z,45.93
2018-08-31T11:20:59.148Z,54.13
2018-08-31T11:23:27.946Z,49.23
2018-08-31T11:25:56.743Z,45.23
2018-08-31T11:28:25.590Z,49.27
2018-08-31T11:30:55.202Z,37.70
2018-08-31T11:33:23.882Z,41.67
2018-08-31T11:35:52.944Z,53.17
2018-08-31T11:38:21.713Z,50.33
2018-08-31T11:40:50.446Z,40.33
2018-08-31T11:43:19.318Z,32.23
2018-08-31T11:45:48.004Z,39.90
2018-08-31T11:48:16.773Z,28.90
2018-08-31T11:50:45.591Z,31.90
2018-08-31T11:53:14.296Z,24.40
2018-08-31T11:55:43.091Z,36.93
2018-08-31T11:58:11.993Z,29.97
2018-08-31T12:00:41.907Z,30.40
2018-08-31T12:03:10.619Z,25.07
2018-08-31T12:05:39.365Z,25.83
2018-08-31T12:08:08.148Z,26.40
2018-08-31T12:10:37.164Z,30.57
2018-08-31T12:13:06.040Z,29.80
2018-08-31T12:15:35.093Z,33.90
2018-08-31T12:18:03.866Z,36.20
2018-08-31T12:20:32.670Z,28.67
2018-08-31T12:23:01.549Z,37.63
2018-08-31T12:25:31.328Z,34.80
2018-08-31T12:28:00.249Z,31.50
2018-08-31T12:30:29.287Z,37.60
2018-08-31T12:32:58.167Z,27.40
2018-08-31T12:35:27.063Z,30.27
2018-08-31T12:37:56.373Z,28.23
2018-08-31T12:40:25.232Z,31.60
2018-08-31T12:42:54.110Z,31.23
2018-08-31T12:45:22.891Z,30.13
2018-08-31T12:47:51.911Z,36.17
2018-08-31T12:50:20.828Z,36.77
2018-08-31T12:52:49.834Z,31.60
2018-08-31T12:55:18.935Z,37.33
2018-08-31T12:57:47.957Z,36.33
2018-08-31T13:00:17.059Z,32.30
2018-08-31T13:02:45.878Z,35.63
2018-08-31T13:05:15.777Z,38.60
2018-08-31T13:07:44.637Z,34.00
2018-08-31T13:10:13.440Z,30.97
2018-08-31T13:12:42.259Z,34.10
2018-08-31T13:15:11.104Z,39.20
2018-08-31T13:17:39.936Z,37.40
2018-08-31T13:20:09.071Z,37.87
2018-08-31T13:22:37.925Z,31.10
2018-08-31T13:25:06.791Z,26.47
2018-08-31T13:27:35.534Z,28.20
2018-08-31T13:30:04.545Z,32.10
2018-08-31T13:32:33.555Z,26.33
2018-08-31T13:35:02.343Z,28.93
2018-08-31T13:37:31.173Z,27.00
2018-08-31T13:39:59.950Z,27.30
2018-08-31T13:42:32.655Z,27.37
2018-08-31T13:45:01.397Z,28.50
2018-08-31T13:47:30.148Z,30.60
2018-08-31T13:49:58.939Z,31.63
2018-08-31T13:52:27.765Z,32.87
2018-08-31T13:54:56.521Z,40.50
2018-08-31T13:57:25.244Z,35.83
2018-08-31T13:59:53.997Z,39.73
2018-08-31T14:02:22.759Z,41.00
2018-08-31T14:04:51.546Z,41.10
2018-08-31T14:07:20.628Z,38.17
2018-08-31T14:09:49.430Z,43.20
2018-08-31T14:12:18.205Z,43.50
2018-08-31T14:14:46.973Z,50.20
2018-08-31T14:17:15.721Z,47.37
2018-08-31T14:19:44.441Z,49.60
2018-08-31T14:22:13.312Z,43.10
2018-08-31T14:24:42.068Z,38.87
2018-08-31T14:27:10.857Z,36.77
2018-08-31T14:29:39.900Z,36.60
2018-08-31T14:32:08.581Z,37.00
2018-08-31T14:34:37.436Z,34.80
2018-08-31T14:37:06.572Z,36.40
2018-08-31T14:39:35.361Z,34.10
2018-08-31T14:42:04.149Z,34.90
2018-08-31T14:44:33.901Z,41.43
2018-08-31T14:47:02.925Z,35.90
2018-08-31T14:49:32.108Z,39.93
2018-08-31T14:52:00.791Z,42.17
2018-08-31T14:54:29.713Z,48.37
2018-08-31T14:56:58.501Z,47.70
2018-08-31T14:59:27.256Z,39.93
2018-08-31T15:01:56.098Z,39.70
2018-08-31T15:04:24.856Z,42.90
2018-08-31T15:06:53.594Z,37.27
2018-08-31T15:09:22.438Z,41.37
2018-08-31T15:11:51.248Z,42.00
2018-08-31T15:14:20.050Z,52.03
2018-08-31T15:16:48.815Z,40.93
2018-08-31T15:19:18.564Z,34.20
2018-08-31T15:21:47.344Z,30.67
2018-08-31T15:24:16.164Z,33.93
2018-08-31T15:26:44.954Z,30.87
2018-08-31T15:29:13.828Z,31.70
2018-08-31T15:31:42.596Z,32.03
2018-08-31T15:34:11.275Z,33.87
2018-08-31T15:36:40.029Z,35.07
2018-08-31T15:39:09.896Z,35.03
2018-08-31T15:41:38.674Z,35.57
2018-08-31T15:44:07.688Z,36.77
2018-08-31T15:46:36.489Z,32.93
2018-08-31T15:49:05.414Z,36.27
2018-08-31T15:51:34.452Z,32.63
2018-08-31T15:54:03.244Z,36.50
2018-08-31T15:56:32.057Z,37.40
2018-08-31T15:59:00.832Z,40.53
2018-08-31T16:01:29.576Z,33.13
2018-08-31T16:03:58.308Z,35.87
2018-08-31T16:06:27.165Z,35.80
2018-08-31T16:08:55.921Z,38.33
2018-08-31T16:11:24.815Z,32.97
2018-08-31T16:13:53.619Z,44.27
2018-08-31T16:16:22.369Z,44.17
2018-08-31T16:18:51.126Z,42.30
2018-08-31T16:21:19.896Z,38.63
2018-08-31T16:23:48.657Z,37.70
2018-08-31T16:26:17.436Z,40.30
2018-08-31T16:28:46.206Z,35.90
2018-08-31T16:31:15.003Z,37.40
2018-08-31T16:33:43.773Z,40.17
2018-08-31T16:36:12.572Z,41.13
2018-08-31T16:38:41.460Z,37.90
2018-08-31T16:41:10.192Z,38.10
2018-08-31T16:43:38.918Z,40.23
2018-08-31T16:46:07.828Z,40.47
2018-08-31T16:48:36.597Z,33.70
2018-08-31T16:51:05.405Z,38.67
2018-08-31T16:53:34.581Z,37.47
2018-08-31T16:56:03.405Z,37.73
2018-08-31T16:58:32.223Z,39.17
2018-08-31T17:01:01.491Z,38.77
2018-08-31T17:03:30.215Z,43.30
2018-08-31T17:05:59.012Z,43.67
2018-08-31T17:08:27.946Z,45.33
2018-08-31T17:10:56.688Z,43.07
2018-08-31T17:13:25.460Z,45.83
2018-08-31T17:15:54.381Z,43.97
2018-08-31T17:18:23.201Z,44.13
2018-08-31T17:20:52.081Z,46.37
2018-08-31T17:23:20.874Z,45.33
2018-08-31T17:25:49.779Z,46.20
2018-08-31T17:28:23.682Z,49.70
2018-08-31T17:30:57.568Z,50.80
2018-08-31T17:33:31.540Z,48.97
2018-08-31T17:36:05.573Z,48.13
2018-08-31T17:38:34.428Z,55.77
2018-08-31T17:41:03.192Z,46.23
2018-08-31T17:43:32.018Z,54.03
2018-08-31T17:46:00.801Z,54.23
2018-08-31T17:48:29.653Z,50.80
2018-08-31T17:50:58.368Z,48.90
2018-08-31T17:53:27.156Z,56.40
2018-08-31T17:55:57.924Z,57.63
2018-08-31T17:58:26.777Z,55.60
2018-08-31T18:00:55.604Z,53.80
2018-08-31T18:03:24.431Z,53.43
2018-08-31T18:05:53.227Z,64.87
2018-08-31T18:08:21.989Z,54.27
2018-08-31T18:10:50.977Z,64.40
2018-08-31T18:13:19.748Z,54.53
2018-08-31T18:15:48.581Z,53.90
2018-08-31T18:18:17.412Z,53.60
2018-08-31T18:20:46.190Z,60.80
2018-08-31T18:23:14.936Z,59.73
2018-08-31T18:25:43.797Z,58.00
2018-08-31T18:28:12.529Z,52.50
2018-08-31T18:30:41.281Z,52.97
2018-08-31T18:33:10.417Z,56.40
2018-08-31T18:35:39.219Z,58.93
2018-08-31T18:38:07.884Z,58.87
2018-08-31T18:40:36.616Z,58.20
2018-08-31T18:43:05.404Z,61.40
2018-08-31T18:45:34.113Z,63.73
2018-08-31T18:48:02.973Z,59.70
2018-08-31T18:50:31.748Z,66.07
2018-08-31T18:53:00.481Z,59.47
2018-08-31T18:55:31.241Z,55.60
2018-08-31T18:58:00.154Z,52.47
2018-08-31T19:00:28.836Z,52.03
2018-08-31T19:02:57.610Z,57.90
2018-08-31T19:05:26.605Z,56.20
2018-08-31T19:07:55.346Z,63.43
2018-08-31T19:10:24.155Z,63.07
2018-08-31T19:12:52.904Z,63.03
2018-08-31T19:15:21.980Z,66.67
2018-08-31T19:17:50.800Z,63.50
2018-08-31T19:20:19.555Z,69.17
2018-08-31T19:22:48.620Z,67.50
2018-08-31T19:25:17.440Z,67.37
2018-08-31T19:27:46.217Z,74.30
2018-08-31T19:30:15.312Z,68.73
2018-08-31T19:32:44.073Z,70.73
2018-08-31T19:35:12.844Z,69.53
2018-08-31T19:37:41.736Z,76.20
2018-08-31T19:40:10.525Z,62.93
2018-08-31T19:42:39.359Z,71.30
2018-08-31T19:45:08.549Z,72.60
2018-08-31T19:47:37.515Z,76.13
2018-08-31T19:50:06.631Z,74.67
2018-08-31T19:52:35.911Z,65.87
2018-08-31T19:55:04.743Z,66.10
2018-08-31T19:57:33.504Z,70.70
2018-08-31T20:00:02.367Z,69.70
2018-08-31T20:02:31.178Z,66.80
2018-08-31T20:04:59.961Z,67.97
2018-08-31T20:07:28.770Z,66.30
2018-08-31T20:09:57.478Z,63.37
2018-08-31T20:12:26.191Z,63.50
2018-08-31T20:14:54.992Z,67.07
2018-08-31T20:17:23.767Z,65.77
2018-08-31T20:19:52.540Z,64.17
2018-08-31T20:22:21.321Z,67.60
2018-08-31T20:24:50.082Z,63.70
2018-08-31T20:27:18.856Z,59.40
2018-08-31T20:29:47.593Z,56.90
2018-08-31T20:32:16.344Z,58.63
2018-08-31T20:34:45.129Z,59.07
2018-08-31T20:37:13.939Z,52.67
2018-08-31T20:39:42.751Z,60.57
2018-08-31T20:42:11.528Z,60.80
2018-08-31T20:44:40.256Z,58.07
2018-08-31T20:47:09.176Z,60.90
2018-08-31T20:49:39.015Z,62.77
2018-08-31T20:52:07.836Z,64.87
2018-08-31T20:54:36.629Z,61.17
2018-08-31T20:57:05.790Z,65.57
2018-08-31T20:59:34.681Z,76.43
2018-08-31T21:02:04.132Z,68.90
2018-08-31T21:04:32.924Z,68.60
2018-08-31T21:07:01.693Z,63.10
2018-08-31T21:09:30.503Z,62.00
2018-08-31T21:11:59.497Z,59.03
2018-08-31T21:14:28.252Z,70.27
2018-08-31T21:16:57.075Z,63.97
2018-08-31T21:19:25.818Z,69.13
2018-08-31T21:21:54.612Z,62.07
2018-08-31T21:24:23.360Z,76.30
2018-08-31T21:26:52.343Z,60.70
2018-08-31T21:29:21.159Z,62.40
2018-08-31T21:31:49.892Z,68.13
2018-08-31T21:34:18.733Z,67.80
2018-08-31T21:36:47.493Z,65.07
2018-08-31T21:39:16.240Z,63.73
2018-08-31T21:41:45.016Z,64.80
2018-08-31T21:44:13.741Z,66.53
2018-08-31T21:46:42.525Z,63.03
2018-08-31T21:49:11.345Z,69.10
2018-08-31T21:51:40.092Z,61.37
2018-08-31T21:54:09.135Z,65.20
2018-08-31T21:56:37.887Z,67.77
2018-08-31T21:59:06.776Z,65.83
2018-08-31T22:01:39.013Z,67.77
2018-08-31T22:04:08.872Z,72.47
2018-08-31T22:06:38.161Z,75.70
2018-08-31T22:09:08.469Z,60.47
2018-08-31T22:11:37.261Z,63.17
2018-08-31T22:14:06.076Z,68.13
2018-08-31T22:16:34.796Z,77.03
2018-08-31T22:19:03.721Z,66.60
2018-08-31T22:21:32.494Z,60.73
2018-08-31T22:24:01.300Z,63.53
2018-08-31T22:26:30.148Z,58.80
2018-08-31T22:28:58.981Z,67.17
2018-08-31T22:31:27.725Z,64.23
2018-08-31T22:33:56.557Z,61.20
2018-08-31T22:36:25.257Z,57.90
2018-08-31T22:38:54.029Z,66.83
2018-08-31T22:41:22.771Z,60.77
2018-08-31T22:43:52.715Z,53.13
2018-08-31T22:46:22.706Z,58.40
2018-08-31T22:48:52.018Z,61.43
2018-08-31T22:51:21.800Z,65.67
2018-08-31T22:53:50.925Z,63.47
2018-08-31T22:56:19.697Z,60.47
2018-08-31T22:58:48.453Z,61.63
2018-08-31T23:01:17.195Z,66.17
2018-08-31T23:03:45.962Z,62.20
2018-08-31T23:06:14.766Z,59.63
2018-08-31T23:08:43.525Z,56.70
2018-08-31T23:11:12.593Z,60.60
2018-08-31T23:13:43.201Z,60.07
2018-08-31T23:16:11.952Z,56.30
2018-08-31T23:18:41.019Z,65.13
2018-08-31T23:21:10.277Z,63.53
2018-08-31T23:23:44.259Z,62.00
2018-08-31T23:26:13.072Z,67.00
2018-08-31T23:28:41.807Z,64.87
2018-08-31T23:31:10.590Z,69.43
2018-08-31T23:33:39.646Z,65.73
2018-08-31T23:36:08.378Z,68.40
2018-08-31T23:38:37.176Z,71.23
2018-08-31T23:41:06.300Z,70.50
2018-08-31T23:43:35.049Z,65.83
2018-08-31T23:46:03.808Z,68.70
2018-08-31T23:48:32.645Z,67.60
2018-08-31T23:51:01.390Z,73.93
2018-08-31T23:53:30.184Z,76.70
2018-08-31T23:55:58.924Z,67.20
2018-08-31T23:58:27.752Z,64.47
